Waalwijk, Netherlands
Current Conditions -  °F | °C
As of 3:55 PM on Thursday 30 Oct 2014 (Local Time) from EHGR Reporting Station
Overcast Overcast  
Wind Chill: 63°   Ceiling: 14000
Heat Index: 63°   Visibility: 6mi
Dew Point: 57°   Wind: 8mph
Humidity: 82%   Direction: 180°S
Pressure: 30.15"   Gusts: NA
Location:  51.68°N, 5.07°E
Report Text: EHGR 301455Z AUTO 18007KT 9999 OVC140 17/14 Q1021 BLU
Loading
Personal Weather Stations






























Interactive Weather Map
Tropical Storm Tracking
New forecast layout! Learn more

10-Day Weather Forecast

Advertisements
Track Severe Weather on mobile